home | artists | genres | years | calendar | countries | playbacks | last played

Records of neo classical

overviewpopular tracks

Artist Record Year Power Played Added Last Played
Jean Michel Jarre Revolutions 1988 7.2 31 1994-04-01 2016-09-06
Jean Michel Jarre Chronologie 1993 8.2 38 1994-05-01 2015-09-28
Jon & Vangelis Short Stories 1980 1.0 18 1995-08-31 2020-04-24
Vangelis Mask 1985 1.0 7 1995-08-31 2015-08-27
Saint Preux The Best Of 1996 12.0 70 1997-04-05 2015-07-12
Vangelis El Greco 1998 1.0 16 1998-01-31 2020-04-30
Vangelis 1492: Conquest Of Paradise 1992 5.0 53 1998-08-31 2015-08-27
Jon & Vangelis Page Of Life 1991 1.0 3 2000-08-31 2008-03-27
Steve Reich The Desert Music 1985 0.0 0 2000-10-05 Never
Steve Reich Different Trains - Electric Counterpoint 1989 0.1 1 2000-10-05 2006-06-27
John Cage 25 Year Retrospective Concert Of The Music Of John Cage 1994 0.0 0 2000-10-05 Never
Philip Glass Glassworks 1982 4.0 17 2001-01-31 2016-01-11
Karlheinz Stockhausen Stimmung 1986 0.0 0 2001-01-31 Never
Harold Budd, Ruben Garcia, Daniel Lentz Music For 3 Pianos 1992 2.0 21 2001-01-31 2008-04-20
Steven Brown & Blaine Reininger One Hundred Years Of Music 1992 0.0 0 2001-01-31 Never
Vangelis Sex Power 1970 1.0 28 2001-01-31 2016-04-30
Vangelis Fais Que Ton Reve Soit Long Que La Nuit 1971 0.0 7 2001-01-31 2007-05-22
Paul McCartney A Garland for Linda 2000 0.0 0 2001-01-31 Never
Vangelis L'Apocalypse Des Animaux 1973 5.1 41 2001-01-31 2020-04-10
Vangelis Heaven And Hell 1975 0.0 2 2001-01-31 2020-04-10
Vangelis Ignacio 1977 0.0 0 2001-01-31 Never
Vangelis & Irene Papas Odes 1978 0.0 4 2001-01-31 2007-05-22
Vangelis Soil Festivities 1984 0.0 3 2001-01-31 2008-04-08
Vangelis The Bounty 1984 1.0 9 2001-01-31 2015-08-27
Vangelis & Irene Papas Rapsodies 1986 0.0 1 2001-01-31 2018-02-06
Paul McCartney Liverpool Oratorio 1991 0.0 0 2001-01-31 Never
Jon & Vangelis Change We Must 1994 0.0 0 2001-01-31 Never
Vangelis Portraits (So Long Ago, So Clear) 1996 0.0 0 2001-01-31 Never
Paul McCartney Standing Stone 1997 0.0 0 2001-01-31 Never
Vangelis Reprise 1990-1999 1999 0.0 0 2001-01-31 Never
Vangelis Mythodea 2001 0.0 0 2001-01-31 Never
Saint Preux To Be Or Not 1980 14.0 76 2002-03-05 2015-11-26
Saint Preux Your Hair 1975 2.0 17 2002-03-05 2012-08-18
Saint Preux Limited Edition 2001 0.0 11 2002-03-05 2009-06-23
Saint Preux The Last Opera 1996 1.0 1 2002-03-05 2012-09-06
Saint Preux Concerto Pour Une Voix 1969 2.0 23 2002-03-05 2009-07-01
Saint Preux Phytandros 1991 0.0 6 2002-03-05 2009-08-05
Saint Preux Le Piano Sous La Mer 1972 2.0 16 2002-03-05 2012-08-18
Saint Preux Le Piano D'Abigail 1983 2.0 19 2002-03-05 2018-02-06
Saint Preux Atlantis 1979 2.0 11 2002-03-05 2012-09-01
Philip Glass Anima Mundi 1993 0.0 0 2002-06-05 Never
Philip Glass Dracula 1999 0.0 0 2002-06-05 Never
Philip Glass Kundun 1997 0.0 0 2002-06-05 Never
Philip Glass Piano Solo 1989 2.0 17 2002-06-05 2018-12-08
Philip Glass Low Symphony 1993 0.0 0 2002-06-05 Never
Mauricio Kagel Klangwölfe 1985 0.0 0 2005-12-27 Never
Ryan Teague Six Preludes 2005 0.0 0 2006-02-08 Never
Rachel's Selenography 1999 3.0 7 2006-05-29 2019-10-11
Zbigniew Preisner Quarter In Four Movements 1994 0.0 0 2006-06-01 Never
Saint Preux Le Piano Enchanté 1988 7.0 90 2006-06-04 2015-10-02
Philip Glass Music In Twelve Parts 1975 0.0 0 2006-06-19 Never
Philip Glass North Star 1977 0.0 0 2006-06-19 Never
Philip Glass Einstein On The Beach 1979 0.0 1 2006-06-25 2006-06-25
Wim Mertens Strategie De La Rupture 1991 0.0 0 2006-06-25 Never
Wim Mertens You'll Never Be Me 1994 0.0 0 2006-06-25 Never
Wim Mertens Jeremiades 1995 3.1 14 2006-06-25 2012-12-11
Wim Mertens Jardin Clos 1996 2.0 11 2006-06-25 2012-08-13
Yasushi Yoshida Secret Figure 2006 0.0 24 2006-11-24 2006-12-19
The Century of Aeroplanes Repellent Communications of Sea Creatures 2006 1.0 6 2006-12-09 2007-09-23
Jeff Wayne The War Of The Worlds 1978 1.0 7 2007-05-30 2012-11-21
Steven Brown Music For Solo Piano 1984 1.0 6 2008-08-19 2008-10-29
Bruno Nicolai Liber Organum 1967 0.0 2 2008-11-01 2008-10-31
Hilmar Örn Hilmarsson Englar Alheimsins 2000 0.0 0 2008-12-15 Never
Saint Preux Odyssée 1986 2.0 5 2009-05-08 2009-05-31
Saint Preux Samara 1974 1.0 7 2009-05-09 2009-05-30
Saint Preux Invitation In Paris 1987 8.0 29 2009-05-09 2012-12-07
Ashram Shining Silver Skies 2006 3.3 21 2009-06-17 2009-09-26
Edo Notarloberti Silent Prayers 2008 4.0 11 2009-06-17 2015-10-01
Luigi Rubino A Theme For The Moon 2009 8.0 32 2009-06-17 2015-02-18
Danny Norbury Light In August 2009 1.0 1 2009-10-01 2012-09-07
Ryuichi Sakamoto Out Of Noise 2009 1.1 1 2009-10-01 2011-09-12
Dakota Suite The End Of Trying 2009 2.1 21 2009-11-01 2014-09-20
Library Tapes Sketches 2007 0.0 1 2009-11-01 2009-10-27
Max Richter Henry May Long OST 2009 3.0 9 2009-11-01 2010-01-04
Peter Broderick Retreat Release 2007 0.0 0 2009-11-01 Never
Takahiro Kido Fleursy Music 2008 0.0 3 2009-11-01 2009-10-20
Yasushi Yohida Little Grace 2008 0.0 0 2009-11-01 Never
Arc Of Doves Impressions 2009 1.0 11 2009-12-19 2010-01-23
Francesco Tristano Not For Piano 2007 1.0 6 2009-12-19 2012-07-14
David Darling Prayer For Compassion 2009 0.0 0 2010-01-12 Never
Erik Enocksson Man Tänker Sitt 2009 1.0 3 2010-01-12 2010-11-05
Raymond Guiot Neo-Classiques Vol.2 0 1.0 1 2010-02-27 2012-08-20
Ketil Bjørnstad The River 1997 2.0 2 2010-04-12 2012-10-25
Nick Cave & Warren Ellis The Road OST 2009 0.0 1 2010-04-12 2010-04-06
Roberto Cacciapaglia Sonanze 1975 1.0 1 2010-04-12 2010-04-06
Roberto Cacciapaglia Sei Note In Logica - Six Notes 1979 0.0 0 2010-04-12 Never
Roberto Cacciapaglia Generazioni Dal Cielo 1982 0.0 0 2010-04-12 Never
Roberto Cacciapaglia Angelus Rock 1992 0.0 0 2010-04-12 Never
Roberto Cacciapaglia Tempus Fugit 2003 0.0 0 2010-04-12 Never
World's End Girlfriend Air Doll OST 2009 2.1 14 2010-04-12 2012-12-09
Gnac The Red Pages 2009 4.0 8 2010-05-01 2012-09-26
Janko Nilovic Classical Phases 1979 0.1 2 2010-05-01 2012-12-13
Kronos Quartet Nuevo 2002 0.1 0 2010-05-14 Never
Wim Mertens Receptacle 2007 0.0 0 2010-05-14 Never
Wim Mertens L'heure Du Loup 2008 1.0 1 2010-05-14 2011-12-29
Wim Mertens The World Tout Court 2009 0.0 0 2010-05-14 Never
Nils Frahm & Anne Müller 7fingers 2010 0.0 0 2010-08-02 Never
Roberto Cacciapaglia Ten Directions 2010 3.0 14 2010-08-24 2011-12-19
Digitonal Be Still My Bleeping Heart 2010 0.0 0 2010-10-01 Never
Michael Hoppé Solace 2003 0.0 3 2010-10-06 2010-10-06
Abel Korzeniowski A Single Man 2010 1.0 16 2011-01-31 2011-09-13
Ketil Bjørnstad The Nest 2002 0.1 1 2011-02-07 2012-08-20
Ketil Bjørnstad The Light 2008 0.0 0 2011-02-07 Never
Ketil Bjørnstad Hvalenes Sang - Oratorium 2010 0.0 0 2011-02-07 Never
various Keys (A Comprehensive Collection Of Contemporary Piano Compositions) 2010 1.1 12 2011-02-07 2011-08-09
Dustin O'Halloran Lumière 2011 3.0 15 2011-03-25 2011-08-20
Les Fragments De La Nuit Demain, C'était Hier 2010 3.0 15 2011-03-28 2011-09-17
Penguin Café A Matter Of Life 2011 2.1 10 2011-03-28 2011-06-01
André Gagnon Impressions 1983 1.0 1 2011-04-29 2011-06-01
André Gagnon Impressions Vol.2 1983 0.0 0 2011-04-29 Never
André Gagnon Éden 1997 0.0 0 2011-04-29 Never
André Gagnon Monologue 1997 0.0 0 2011-04-29 Never
André Gagnon Le Pianiste 1998 0.0 0 2011-04-29 Never
André Gagnon Les Jours Tranquilles 1998 0.0 0 2011-04-29 Never
André Gagnon Rêves D'automne 1999 0.0 0 2011-04-29 Never
André Gagnon Image 2000 0.0 0 2011-04-29 Never
André Gagnon Presque Bleu 2000 0.0 0 2011-04-29 Never
André Gagnon Résonance 2000 0.0 0 2011-04-29 Never
André Gagnon Histoires Rêvées 2001 0.1 0 2011-04-29 Never
André Gagnon Saisons 2001 0.0 0 2011-04-29 Never
André Gagnon Solitude 2003 0.0 0 2011-04-29 Never
André Gagnon The Most Beloved 2003 0.0 0 2011-04-29 Never
André Gagnon Towa-Ni 2006 0.0 0 2011-04-29 Never
Biggi Hilmars Cinematic Songs 2011 1.1 7 2011-04-29 2012-12-05
Hauschka Foreign Landscapes 2010 0.0 0 2011-05-02 Never
Hauschka Salon Des Amateurs 2011 3.1 4 2011-05-02 2011-08-09
Ketil Bjørnstad & Svante Henryson Night Song 2011 0.0 0 2011-05-02 Never
Дмитрий Евграфов Lying On Your Shoulder 2011 1.0 3 2011-05-04 2011-09-03
Ennio Morricone April Orchestra Présente RCA Sound Vol. 3 1976 0.0 0 2011-06-03 Never
Hilmar Örn Hilmarsson & Sigur Rós Angels Of The Universe 2002 0.0 0 2011-06-03 Never
Chapelier Fou 613 2010 2.0 4 2011-06-28 2011-11-09
Гия Канчели Themes From The Songbook 2010 0.1 1 2011-07-21 2011-08-17
Ketsa Ketsonica 2011 3.1 7 2011-09-12 2012-08-20
Wim Mertens Educes Me 1987 0.0 0 2011-09-19 Never
Wim Mertens Hufhuf 1991 1.1 4 2011-09-19 2011-10-15
Wim Mertens Series Of Ands - Immediate Givens 2001 1.0 2 2011-09-19 2011-10-11
Ludovico Einaudi Islands 2011 0.0 0 2011-11-22 Never
Nils Frahm Felt 2011 1.0 1 2011-11-25 2012-08-19
Paul McCartney Ocean's Kingdom 2011 0.0 0 2011-11-28 Never
Ben Frost & Daníel Bjarnason Sólaris 2011 0.1 1 2011-11-28 2011-11-29
Goldmund All Will Prosper 2011 0.0 0 2011-11-30 Never
A Winged Victory For The Sullen A Winged Victory For The Sullen 2011 1.0 2 2012-01-03 2012-03-28
Arvo Pärt Дознание Пилота Пиркса 1978 0.0 0 2012-01-04 Never
Hauschka & Hildur Guðnadóttir Pan Tone 2011 0.0 0 2012-01-06 Never
Альфред Гарриевич Шнитке Посетитель Музея 1989 0.0 0 2012-01-11 Never
Леонид Десятников Мишень 2011 0.0 0 2012-01-20 Never
Piero Umiliani Mondo Inquieto 1974 0.0 0 2012-02-13 Never
Richard Moult Suite for Tor Aluinn 2011 0.0 0 2012-02-13 Never
Jon Schmidt & Steven Sharp Nelson The PianoGuys Hits Volume I 2012 8.0 33 2012-03-08 2017-09-20
Les Fragments De La Nuit Musique De Nuit 2012 0.0 0 2012-03-29 Never
Saint Preux Confidence 1980 1.0 2 2012-05-11 2012-07-01
Hilary Hahn & Hauschka Silfra 2012 0.0 7 2012-07-31 2012-07-31
Penguin Cafe Orchestra Oskar Und Leni 1996 0.0 0 2012-08-27 Never
Seestrings In My Dream I Lost You 2005 1.0 21 2012-09-16 2012-09-27
Keith Kenniff Branches 2012 3.0 9 2012-12-14 2013-06-10
4'33'' Hard Disc 2012 1.0 6 2012-12-14 2013-06-02
Saint Preux Jeanne La Romantique 2008 4.0 14 2012-12-23 2013-03-03
Yuhki Kuramoto Rêverie 2012 1.0 3 2012-12-29 2013-06-05
Bark Cat Bark Mathilde 2009 3.0 35 2013-01-23 2013-03-09
Apparat Krieg Und Frieden (Music For Theatre) 2013 0.0 1 2013-02-16 2013-02-15
Ludovico Einaudi In A Time Lapse 2013 0.0 0 2013-02-20 Never
Lyndsie Alguire Suspended In Light 2011 3.0 5 2013-03-05 2014-11-29
Aufgang Istiklaliya 2013 6.0 20 2013-05-08 2013-09-25
Fabrizio Paterlini Now 2013 4.0 38 2013-05-09 2013-10-02
Brian Crain Piano And Violin Duet 2011 1.0 14 2013-08-15 2013-11-07
Brian Crain Spring Symphonies 2005 0.0 4 2013-08-23 2013-08-23
Coax Anomie 2008 0.0 0 2013-10-01 Never
Nils Frahm Spaces 2013 2.0 5 2013-12-17 2014-06-25
Ryuichi Sakamoto Three 2013 0.0 0 2013-12-19 Never
Vangelis Trashed 2012 0.2 2 2014-07-27 2014-12-22
Ashram Ashram 2002 0.0 4 2014-10-27 2014-10-27
Jordan Rudess Explorations 2014 0.0 1 2014-11-18 2014-11-18
Saint Preux Le Désir 2009 1.0 2 2014-11-21 2014-12-13
Yanni Inspirato 2014 0.0 2 2014-11-25 2014-11-24
various Music to Study Soft Piano Compositions to Get Focused and Concentrated 2015 2.0 31 2015-06-05 2015-09-03
Jacob Pavek Illume 2015 3.0 2 2015-09-04 2015-12-20
Henilios Another Life 2015 1.2 24 2015-09-06 2015-12-31
Max Richter The Leftovers OST Season 1 2014 1.1 3 2015-09-10 2015-09-10
Ola Gjeilo Stone Rose 2007 1.0 1 2015-09-11 2015-09-11
Edo Notarloberti Preludio 2009 1.0 3 2015-10-03 2015-11-07
Misha Mishenko Piano 2015 0.0 0 2015-12-30 Never
various The Unexpected String Quartet 2016 8.0 44 2016-09-18 2017-01-14
Vangelis Rosetta 2016 2.0 27 2016-10-30 2020-05-06
Dakota Suite With David Darling & Quentin Sirjacq Vallisa 2010 0.0 0 2016-12-14 Never
Quentin Sirjacq Bright Days Ahead 2013 3.0 1 2016-12-20 2016-12-19
Quentin Sirjacq La Chambre Claire 2011 0.0 1 2016-12-20 2016-12-19
Ilya Beshevli Wanderer 2016 2.0 16 2016-12-28 2016-12-28
Julian Dente Lonely Leftovers 2016 2.0 13 2016-12-31 2017-01-29
Billy Whittington, Ken Lewis, Scott Dente, Jim Gray Cello A La Carte 2016 0.0 0 2017-01-17 Never
James Reynolds Postmodern Piano Score 2012 3.0 13 2017-01-21 2017-01-21
various Neo Classical 5 2017 5.0 11 2017-06-26 2017-06-26
Tvärvägen Staring Directly Into the Sun 2012 1.0 2 2017-07-01 2017-06-30
Max Richter Three Worlds - Music From Woolf Works 2017 0.0 0 2017-07-26 Never
various Львівські Імпресії 0 0.0 0 2017-09-17 Never
Max Richter Taboo 2017 1.0 0 2017-09-17 Never
Philip Glass Jane 2017 0.0 3 2017-12-06 2017-12-06
Philip Glass Complete Piano Etudes 2017 0.0 1 2017-12-13 2017-12-13
Ashram Human And Divine 2017 0.0 0 2018-01-23 Never
Raymond Guiot Flute + Clavecin 1970 0.0 6 2019-04-12 2019-04-12
various Post Classical 2 2017 0.0 0 2019-06-07 Never
various The Beauty Of Movement 2018 7.1 46 2019-07-29 2019-11-30
Saint Preux Missa Amoris 1975 1.0 0 2020-11-10 Never
Kick Out The JAMS! Aulismedia Music Library 2018.02.18 "Space Oddity" © Sergey Mishenev 2003-2021